Time;durP1;ratioP1;P1;durP2;ratioP2;P2;SDS_P1;SDS_P2;PMS_P1;PMS_P2;Temp;Humidity;BMP_temperature;BMP_pressure;BME280_temperature;BME280_humidity;BME280_pressure;Samples;Min_cycle;Max_cycle;Signal;HPM_P1;HPM_P2
2021/08/09 00:02:02;;;;;;;1.25;1.17;;;;;;;18.54;68.17;95907.53;4995028;28;20204;-84
2021/08/09 00:04:29;;;;;;;1.67;1.50;;;;;;;18.54;68.40;95911.97;4989287;28;20199;-84
2021/08/09 00:06:55;;;;;;;1.80;1.60;;;;;;;18.54;68.36;95915.38;4989113;28;20239;-84
2021/08/09 00:09:22;;;;;;;1.38;1.20;;;;;;;18.43;69.10;95913.50;4989337;28;20231;-84
2021/08/09 00:11:48;;;;;;;3.42;1.20;;;;;;;18.36;69.62;95910.16;4989472;28;20563;-84
2021/08/09 00:14:15;;;;;;;1.75;1.30;;;;;;;18.39;69.43;95908.91;4989233;28;20234;-83
2021/08/09 00:16:41;;;;;;;1.60;1.30;;;;;;;18.34;69.69;95912.16;4989370;28;20214;-84
2021/08/09 00:19:09;;;;;;;1.77;1.50;;;;;;;18.34;69.73;95914.78;4989327;28;20219;-83
2021/08/09 00:21:35;;;;;;;2.80;1.48;;;;;;;18.40;69.37;95918.34;4989362;28;20207;-84
2021/08/09 00:24:02;;;;;;;1.63;1.20;;;;;;;18.38;69.44;95912.53;4989079;28;20663;-87
2021/08/09 00:26:29;;;;;;;1.65;1.40;;;;;;;18.38;69.13;95909.94;4989418;28;20621;-86
2021/08/09 00:28:56;;;;;;;1.20;1.10;;;;;;;18.38;69.43;95902.91;4989241;28;20303;-85
2021/08/09 00:31:22;;;;;;;1.83;1.27;;;;;;;18.38;69.46;95907.31;4989757;28;20229;-85
2021/08/09 00:33:49;;;;;;;2.03;1.30;;;;;;;18.40;69.22;95910.53;4989336;28;20223;-85
2021/08/09 00:36:17;;;;;;;2.03;1.20;;;;;;;18.43;68.99;95905.69;4989613;28;20199;-85
2021/08/09 00:38:43;;;;;;;1.10;1.00;;;;;;;18.46;69.01;95904.44;4969797;28;20231;-85
2021/08/09 00:41:10;;;;;;;1.75;1.20;;;;;;;18.47;68.84;95898.22;4969970;28;20619;-84
2021/08/09 00:43:36;;;;;;;1.65;1.23;;;;;;;18.45;69.42;95906.25;4969277;28;20215;-84
2021/08/09 00:46:04;;;;;;;2.60;1.30;;;;;;;18.40;69.54;95898.28;4969795;28;20214;-83
2021/08/09 00:48:31;;;;;;;1.80;1.30;;;;;;;18.35;70.21;95898.13;4969802;28;20228;-84
2021/08/09 00:50:58;;;;;;;1.52;1.30;;;;;;;18.26;70.72;95902.84;4969534;28;20203;-84
2021/08/09 00:53:26;;;;;;;2.35;1.30;;;;;;;18.26;70.38;95902.84;4969359;28;20235;-83
2021/08/09 00:55:52;;;;;;;3.20;1.50;;;;;;;18.27;70.32;95903.66;4969788;28;20215;-85
2021/08/09 00:58:21;;;;;;;1.98;1.20;;;;;;;18.29;70.29;95901.59;4969620;28;20732;-85
2021/08/09 01:00:47;;;;;;;1.85;1.17;;;;;;;18.25;70.15;95898.66;4969485;28;20211;-84
2021/08/09 01:03:14;;;;;;;3.15;1.38;;;;;;;18.23;70.47;95900.66;4969341;28;20204;-84
2021/08/09 01:05:42;;;;;;;2.33;1.30;;;;;;;18.11;71.02;95891.16;4969118;28;20235;-85
2021/08/09 01:08:17;;;;;;;2.38;1.33;;;;;;;18.14;70.67;95891.53;4969803;28;20232;-83
2021/08/09 01:10:53;;;;;;;3.05;1.40;;;;;;;18.16;70.55;95886.09;4973239;28;20239;-84
2021/08/09 01:13:24;;;;;;;1.77;1.42;;;;;;;18.12;71.08;95882.31;4973355;28;20208;-84
2021/08/09 01:15:55;;;;;;;1.17;1.08;;;;;;;18.05;71.46;95886.81;4973664;28;20204;-84
2021/08/09 01:18:26;;;;;;;2.38;1.40;;;;;;;18.01;71.86;95880.44;4973281;28;20879;-84
2021/08/09 01:20:57;;;;;;;2.53;1.30;;;;;;;17.91;72.69;95889.53;4973056;28;20200;-84
2021/08/09 01:23:36;;;;;;;2.97;1.40;;;;;;;17.90;72.91;95887.94;4973412;28;20265;-85
2021/08/09 01:26:17;;;;;;;2.13;1.30;;;;;;;17.90;72.82;95890.53;4972786;28;20749;-85
2021/08/09 01:28:47;;;;;;;1.63;1.20;;;;;;;17.93;72.58;95889.31;4982135;28;20222;-84
2021/08/09 01:31:16;;;;;;;1.45;1.35;;;;;;;17.89;72.52;95896.78;4992209;28;20210;-84
2021/08/09 01:33:45;;;;;;;2.25;1.25;;;;;;;17.83;72.63;95894.25;4991625;28;20230;-84
2021/08/09 01:36:15;;;;;;;1.67;1.20;;;;;;;17.77;72.65;95884.66;4992297;28;20227;-84
2021/08/09 01:38:43;;;;;;;3.08;1.33;;;;;;;17.77;72.68;95885.47;4992256;28;20219;-83
2021/08/09 01:41:10;;;;;;;3.28;1.58;;;;;;;17.83;72.14;95894.25;4992228;28;20697;-84
2021/08/09 01:43:38;;;;;;;1.23;1.10;;;;;;;17.85;72.54;95885.19;4992004;28;20200;-83
2021/08/09 01:46:07;;;;;;;3.33;1.35;;;;;;;17.91;72.21;95892.13;4992427;28;20674;-85
2021/08/09 01:48:34;;;;;;;1.20;1.10;;;;;;;17.97;72.22;95882.69;4992158;28;20231;-84
2021/08/09 01:51:00;;;;;;;1.45;1.10;;;;;;;17.95;72.22;95889.91;4992191;28;20226;-84
2021/08/09 01:53:27;;;;;;;2.13;1.63;;;;;;;17.95;72.20;95884.69;4992014;28;20270;-84
2021/08/09 01:55:54;;;;;;;2.03;1.27;;;;;;;17.93;72.04;95884.09;4992023;28;20214;-84
2021/08/09 01:58:20;;;;;;;2.28;1.45;;;;;;;17.86;72.80;95889.41;4992300;28;20226;-84
2021/08/09 02:00:47;;;;;;;1.63;1.27;;;;;;;17.93;72.35;95882.31;4992313;28;20219;-84
2021/08/09 02:03:14;;;;;;;1.30;1.10;;;;;;;17.96;72.52;95888.91;4991742;28;20206;-84
2021/08/09 02:05:41;;;;;;;2.17;1.40;;;;;;;17.90;73.39;95884.53;4991316;28;20792;-84
2021/08/09 02:08:11;;;;;;;1.42;1.33;;;;;;;17.89;72.91;95888.19;4991675;28;20593;-85
2021/08/09 02:10:38;;;;;;;1.38;1.20;;;;;;;17.78;74.09;95889.66;5007036;28;20214;-84
2021/08/09 02:13:07;;;;;;;1.67;1.23;;;;;;;17.80;74.17;95881.63;5011030;28;20213;-85
2021/08/09 02:15:52;;;;;;;1.58;1.10;;;;;;;17.82;74.92;95882.22;5011148;28;20223;-84
2021/08/09 02:18:25;;;;;;;1.77;1.40;;;;;;;17.80;74.49;95884.25;5011213;28;20728;-85
2021/08/09 02:20:56;;;;;;;1.73;1.42;;;;;;;17.87;73.63;95877.16;5011012;28;20219;-84
2021/08/09 02:23:35;;;;;;;2.35;1.45;;;;;;;17.90;73.82;95884.53;5011368;28;20210;-85
2021/08/09 02:26:04;;;;;;;1.52;1.42;;;;;;;17.85;73.45;95887.81;5010858;28;20203;-84
2021/08/09 02:28:51;;;;;;;;;;;;;;;;;;;;;
2021/08/09 02:31:20;;;;;;;2.95;1.70;;;;;;;17.84;73.50;95882.81;5010646;28;20211;-85
2021/08/09 02:33:49;;;;;;;3.25;1.80;;;;;;;17.89;73.10;95882.97;5010629;28;20581;-84
2021/08/09 02:36:16;;;;;;;3.42;2.03;;;;;;;17.87;73.13;95879.78;5011031;28;20258;-83
2021/08/09 02:38:43;;;;;;;3.08;1.77;;;;;;;17.85;73.20;95881.78;5010826;28;20223;-84
2021/08/09 02:41:11;;;;;;;2.75;1.90;;;;;;;17.85;73.26;95880.00;5010805;28;20203;-84
2021/08/09 02:43:38;;;;;;;2.65;1.75;;;;;;;17.77;73.97;95875.03;5010658;28;20217;-85
2021/08/09 02:46:05;;;;;;;2.95;1.90;;;;;;;17.79;73.66;95874.81;5010439;28;20206;-84
2021/08/09 02:48:33;;;;;;;2.70;1.55;;;;;;;17.74;73.52;95877.25;5010722;28;20317;-86
2021/08/09 02:51:01;;;;;;;1.70;1.60;;;;;;;17.69;73.77;95880.53;5013461;28;20619;-84
2021/08/09 02:53:29;;;;;;;2.35;1.83;;;;;;;17.65;74.33;95870.75;5010234;28;20233;-83
2021/08/09 02:55:58;;;;;;;1.88;1.55;;;;;;;17.65;75.07;95870.75;5009909;28;20234;-83
2021/08/09 02:58:25;;;;;;;1.85;1.55;;;;;;;17.69;74.83;95870.13;5010490;28;20695;-84
2021/08/09 03:00:54;;;;;;;3.75;1.60;;;;;;;17.69;75.48;95871.94;5010404;28;20206;-83
2021/08/09 03:03:22;;;;;;;3.17;1.70;;;;;;;17.72;75.53;95872.28;5009743;28;20210;-84
2021/08/09 03:05:52;;;;;;;2.05;1.30;;;;;;;17.74;74.76;95879.88;5009645;28;20254;-83
2021/08/09 03:08:21;;;;;;;1.95;1.50;;;;;;;17.78;74.82;95881.84;5011173;28;20295;-85
2021/08/09 03:10:48;;;;;;;3.35;1.33;;;;;;;17.86;74.49;95886.78;4990724;28;20211;-83
2021/08/09 03:13:14;;;;;;;1.42;1.30;;;;;;;17.88;74.13;95895.19;5009979;28;20207;-84
2021/08/09 03:15:42;;;;;;;1.67;1.30;;;;;;;17.86;74.40;95899.81;5010046;28;20224;-85
2021/08/09 03:18:10;;;;;;;2.60;1.70;;;;;;;17.74;75.70;95901.50;5009977;28;20277;-84
2021/08/09 03:20:36;;;;;;;3.60;1.65;;;;;;;17.75;75.29;95897.91;5010151;28;20209;-85
2021/08/09 03:23:03;;;;;;;2.20;1.60;;;;;;;17.71;75.34;95888.91;5009643;28;20207;-85
2021/08/09 03:25:31;;;;;;;2.90;1.60;;;;;;;17.75;75.80;95897.09;5009905;28;20206;-85
2021/08/09 03:27:59;;;;;;;2.40;1.58;;;;;;;17.79;75.38;95890.44;5007017;28;20748;-85
2021/08/09 03:30:26;;;;;;;1.40;1.30;;;;;;;17.84;74.73;95895.81;4990528;28;20199;-83
2021/08/09 03:32:53;;;;;;;2.45;1.45;;;;;;;17.81;74.79;95907.47;4989379;28;20279;-84
2021/08/09 03:35:19;;;;;;;1.80;1.50;;;;;;;17.78;74.15;95901.88;4989915;28;20223;-84
2021/08/09 03:37:46;;;;;;;3.60;1.33;;;;;;;17.80;74.42;95907.69;4978018;28;20200;-86
2021/08/09 03:40:13;;;;;;;2.67;1.60;;;;;;;17.80;74.32;95910.28;4970782;28;20211;-84
2021/08/09 03:42:41;;;;;;;1.40;1.30;;;;;;;17.77;74.22;95911.50;4970652;28;20215;-86
2021/08/09 03:45:09;;;;;;;4.32;1.70;;;;;;;17.77;73.97;95910.72;4970581;28;20201;-84
2021/08/09 03:47:35;;;;;;;1.92;1.20;;;;;;;17.75;73.97;95910.13;4970718;28;20545;-84
2021/08/09 03:50:01;;;;;;;2.03;1.60;;;;;;;17.78;73.94;95917.50;4971718;28;20203;-84
2021/08/09 03:52:28;;;;;;;1.75;1.40;;;;;;;17.77;73.45;95921.13;4981340;28;20207;-84
2021/08/09 03:54:54;;;;;;;1.73;1.48;;;;;;;17.70;74.08;95913.38;4970459;28;20251;-85
2021/08/09 03:57:23;;;;;;;1.50;1.30;;;;;;;17.70;74.07;95916.00;4985370;28;20203;-85
2021/08/09 03:59:50;;;;;;;1.33;1.23;;;;;;;17.71;74.11;95907.13;4990138;28;20263;-85
2021/08/09 04:02:18;;;;;;;1.80;1.17;;;;;;;17.74;74.40;95898.91;4989712;28;20211;-85
2021/08/09 04:04:44;;;;;;;1.42;1.20;;;;;;;17.65;75.00;95897.59;4989991;28;20209;-84
2021/08/09 04:07:11;;;;;;;2.28;1.50;;;;;;;17.54;75.07;95901.63;4989128;28;20230;-83
2021/08/09 04:09:37;;;;;;;1.75;1.40;;;;;;;17.50;76.03;95897.88;4973799;28;20228;-84
2021/08/09 04:12:04;;;;;;;3.38;1.45;;;;;;;17.54;75.74;95903.44;4970732;28;20201;-83
2021/08/09 04:14:30;;;;;;;5.93;1.58;;;;;;;17.57;75.56;95901.22;4970248;28;20231;-84
2021/08/09 04:16:59;;;;;;;3.03;1.20;;;;;;;17.64;75.16;95900.38;4970821;28;20201;-85
2021/08/09 04:19:28;;;;;;;3.42;1.50;;;;;;;17.64;75.72;95906.41;4970410;28;20580;-88
2021/08/09 04:21:55;;;;;;;3.90;1.88;;;;;;;17.79;77.89;95912.09;4977296;28;20211;-86
2021/08/09 04:24:21;;;;;;;2.45;1.77;;;;;;;17.97;78.43;95906.13;4976138;28;20204;-86
2021/08/09 04:26:48;;;;;;;4.38;1.90;;;;;;;18.16;77.56;95906.94;4975861;28;20216;-86
2021/08/09 04:29:14;;;;;;;1.92;1.65;;;;;;;18.29;75.99;95910.22;4989911;28;20226;-86
2021/08/09 04:31:44;;;;;;;3.70;2.00;;;;;;;18.33;74.97;95907.19;4996379;28;20214;-87
2021/08/09 04:34:12;;;;;;;2.33;1.60;;;;;;;18.24;73.80;95911.88;4995553;28;20204;-87
2021/08/09 04:36:38;;;;;;;3.05;1.40;;;;;;;18.25;74.57;95906.47;4996297;28;20207;-86
2021/08/09 04:39:05;;;;;;;1.85;1.42;;;;;;;18.24;74.49;95917.91;4995596;28;20227;-87
2021/08/09 04:41:31;;;;;;;3.42;1.73;;;;;;;18.27;74.62;95912.25;4994966;28;20203;-86
2021/08/09 04:43:58;;;;;;;5.32;2.03;;;;;;;18.40;75.15;95910.53;5001192;28;20237;-86
2021/08/09 04:46:25;;;;;;;2.58;1.63;;;;;;;18.53;74.77;95915.56;5001604;28;20225;-86
2021/08/09 04:48:51;;;;;;;2.28;1.60;;;;;;;18.65;73.64;95915.69;5004625;28;20231;-87
2021/08/09 04:51:19;;;;;;;2.78;1.60;;;;;;;18.73;73.66;95910.16;4999294;28;20203;-87
2021/08/09 04:53:50;;;;;;;2.72;1.67;;;;;;;18.80;73.19;95916.91;5000403;28;20211;-87
2021/08/09 04:56:16;;;;;;;3.45;2.00;;;;;;;18.85;72.94;95909.22;5002809;28;20276;-88
2021/08/09 04:58:46;;;;;;;4.20;1.92;;;;;;;18.89;72.75;95909.56;5007454;28;20222;-89
2021/08/09 05:01:13;;;;;;;2.28;1.85;;;;;;;18.87;71.80;95915.00;5000081;28;20203;-88
2021/08/09 05:03:40;;;;;;;2.25;2.05;;;;;;;18.94;72.11;95918.31;4998999;28;20217;-88
2021/08/09 05:06:08;;;;;;;8.90;7.65;;;;;;;19.04;71.81;95915.22;4998122;28;20327;-88
2021/08/09 05:08:39;;;;;;;12.30;10.35;;;;;;;19.08;70.96;95920.75;5001965;28;20638;-88
2021/08/09 05:11:14;;;;;;;4.40;3.80;;;;;;;19.11;69.87;95921.13;5023345;28;20214;-88
2021/08/09 05:14:05;;;;;;;3.70;2.90;;;;;;;19.13;70.04;95926.13;5034831;28;20198;-89
2021/08/09 05:16:52;;;;;;;2.60;1.52;;;;;;;19.10;68.87;95931.78;5031966;28;20644;-89
2021/08/09 05:19:32;;;;;;;2.05;1.50;;;;;;;18.98;68.43;95929.13;5033053;28;20228;-89
2021/08/09 05:21:59;;;;;;;2.03;1.23;;;;;;;18.87;68.54;95935.88;5033376;28;20571;-88
2021/08/09 05:24:34;;;;;;;1.40;1.30;;;;;;;18.79;68.64;95936.19;5035338;28;20259;-89
2021/08/09 05:27:01;;;;;;;2.65;1.65;;;;;;;18.78;69.01;95928.56;5017700;28;20261;-86
2021/08/09 05:29:27;;;;;;;3.47;1.60;;;;;;;18.80;68.94;95927.34;5014823;28;20230;-88
2021/08/09 05:31:54;;;;;;;4.82;1.60;;;;;;;18.82;68.78;95927.13;5013284;28;20246;-86
2021/08/09 05:34:20;;;;;;;1.80;1.60;;;;;;;18.85;69.09;95924.88;5014321;28;20209;-87
2021/08/09 05:36:47;;;;;;;4.82;1.80;;;;;;;18.83;69.00;95926.13;5015618;28;20223;-86
2021/08/09 05:39:14;;;;;;;2.92;1.80;;;;;;;18.81;69.16;95931.56;5014897;28;20752;-85
2021/08/09 05:41:42;;;;;;;2.30;1.70;;;;;;;18.83;68.65;95932.13;5016245;28;20221;-86
2021/08/09 05:44:09;;;;;;;5.90;2.00;;;;;;;18.84;69.16;95928.50;5015880;28;20203;-87
2021/08/09 05:46:35;;;;;;;3.80;2.17;;;;;;;18.87;69.21;95935.06;5015038;28;20789;-85
2021/08/09 05:49:01;;;;;;;2.45;1.77;;;;;;;18.89;68.97;95931.22;5014110;28;20226;-86
2021/08/09 05:51:28;;;;;;;5.30;1.83;;;;;;;18.92;68.80;95932.59;5015954;28;20207;-88
2021/08/09 05:53:54;;;;;;;2.85;1.90;;;;;;;18.93;68.99;95927.19;5016937;28;20195;-88
2021/08/09 05:56:27;;;;;;;3.38;2.00;;;;;;;18.96;69.30;95933.78;5017386;28;20226;-87
2021/08/09 05:58:55;;;;;;;4.55;1.92;;;;;;;19.00;69.38;95937.53;5015524;28;20249;-88
2021/08/09 06:01:23;;;;;;;2.83;1.50;;;;;;;19.04;68.94;95932.69;5016114;28;20202;-87
2021/08/09 06:03:51;;;;;;;4.65;1.65;;;;;;;19.11;69.07;95939.38;5017733;28;20268;-89
2021/08/09 06:06:19;;;;;;;1.70;1.60;;;;;;;19.18;69.31;95936.69;5018955;28;20235;-89
2021/08/09 06:08:48;;;;;;;1.67;1.40;;;;;;;19.18;69.77;95934.88;5024371;28;20226;-88
2021/08/09 06:11:15;;;;;;;2.88;1.50;;;;;;;19.28;69.61;95932.53;5039869;28;20217;-87
2021/08/09 06:13:41;;;;;;;3.78;1.75;;;;;;;19.30;70.21;95924.47;5038195;28;20207;-87
2021/08/09 06:16:10;;;;;;;2.10;1.50;;;;;;;19.33;69.81;95917.00;5037469;28;20226;-87
2021/08/09 06:18:37;;;;;;;2.58;1.52;;;;;;;19.37;69.67;95925.19;5039102;28;20220;-87
2021/08/09 06:21:04;;;;;;;3.05;1.50;;;;;;;19.44;69.17;95919.84;5038215;28;20202;-87
2021/08/09 06:23:31;;;;;;;2.58;1.50;;;;;;;19.48;68.81;95923.63;5036906;28;20569;-87
2021/08/09 06:25:57;;;;;;;1.85;1.20;;;;;;;19.49;68.84;95926.00;5038491;28;20569;-89
2021/08/09 06:28:24;;;;;;;3.13;1.35;;;;;;;19.50;68.62;95922.41;5036731;28;20290;-86
2021/08/09 06:30:51;;;;;;;1.80;1.27;;;;;;;19.54;68.61;95927.97;5034835;28;20202;-86
2021/08/09 06:33:18;;;;;;;3.70;1.40;;;;;;;19.59;68.43;95931.53;5017848;28;20202;-85
2021/08/09 06:35:45;;;;;;;3.30;1.20;;;;;;;19.63;68.27;95927.41;5016854;28;20218;-86
2021/08/09 06:38:11;;;;;;;1.58;1.20;;;;;;;19.67;67.77;95930.38;5012911;28;20632;-86
2021/08/09 06:40:42;;;;;;;2.65;1.48;;;;;;;19.72;67.22;95935.75;5011932;28;20203;-86
2021/08/09 06:43:09;;;;;;;2.08;1.40;;;;;;;19.77;67.48;95938.47;5012855;28;20202;-85
2021/08/09 06:45:40;;;;;;;3.28;1.48;;;;;;;19.81;67.64;95936.22;5013626;28;20310;-87
2021/08/09 06:48:07;;;;;;;1.50;1.20;;;;;;;19.86;67.28;95938.94;5011780;28;20214;-88
2021/08/09 06:50:35;;;;;;;1.75;1.38;;;;;;;19.95;67.32;95933.16;5013457;28;20285;-85
2021/08/09 06:53:02;;;;;;;2.38;1.40;;;;;;;19.99;66.91;95934.31;5012428;28;20210;-85
2021/08/09 06:55:29;;;;;;;2.00;1.35;;;;;;;19.98;67.50;95926.69;5010796;28;20221;-84
2021/08/09 06:57:55;;;;;;;1.40;1.30;;;;;;;20.02;67.60;95933.03;5010326;28;20261;-85
2021/08/09 07:00:22;;;;;;;2.25;1.50;;;;;;;19.94;65.86;95920.31;5011118;28;20206;-85
2021/08/09 07:02:48;;;;;;;2.42;1.40;;;;;;;19.79;61.86;95914.75;5011844;28;20238;-86
2021/08/09 07:05:15;;;;;;;2.53;1.60;;;;;;;19.78;62.85;95911.34;5011976;28;20238;-86
2021/08/09 07:07:45;;;;;;;1.25;1.10;;;;;;;19.76;62.26;95910.75;5012447;28;20203;-86
2021/08/09 07:10:13;;;;;;;1.90;1.08;;;;;;;19.91;63.40;95915.53;5012679;28;20213;-85
2021/08/09 07:12:40;;;;;;;3.10;1.35;;;;;;;20.08;62.76;95915.66;4999477;28;20215;-86
2021/08/09 07:15:07;;;;;;;1.67;1.38;;;;;;;20.20;61.28;95925.09;4992689;28;20218;-85
2021/08/09 07:17:39;;;;;;;3.80;1.10;;;;;;;20.23;59.26;95924.63;4993346;28;20200;-85
2021/08/09 07:20:07;;;;;;;1.85;1.63;;;;;;;20.21;59.08;95920.66;4991908;28;20718;-87
2021/08/09 07:22:34;;;;;;;2.15;1.17;;;;;;;20.28;59.10;95919.50;4991467;28;20207;-84
2021/08/09 07:25:02;;;;;;;1.40;1.30;;;;;;;20.39;58.62;95925.00;4990319;28;20207;-85
2021/08/09 07:27:29;;;;;;;2.15;1.25;;;;;;;20.51;59.30;95928.38;4991685;28;20204;-85
2021/08/09 07:29:55;;;;;;;1.33;1.23;;;;;;;20.62;58.69;95930.97;4992339;28;20737;-86
2021/08/09 07:32:21;;;;;;;2.50;1.50;;;;;;;20.72;59.17;95940.88;4992430;28;20200;-86
2021/08/09 07:34:48;;;;;;;1.52;1.38;;;;;;;20.84;60.74;95941.63;4990654;28;20222;-85
2021/08/09 07:37:14;;;;;;;3.05;1.30;;;;;;;20.96;59.88;95942.41;4993462;28;20720;-86
2021/08/09 07:39:41;;;;;;;1.98;1.52;;;;;;;21.04;59.34;95938.59;4992635;28;20239;-86
2021/08/09 07:42:10;;;;;;;3.60;1.50;;;;;;;21.08;59.92;95933.72;4992219;28;20211;-86
2021/08/09 07:44:37;;;;;;;2.25;1.33;;;;;;;21.07;57.32;95929.50;4992532;28;20803;-85
2021/08/09 07:47:04;;;;;;;3.08;1.50;;;;;;;21.19;57.96;95935.47;4993029;28;20204;-85
2021/08/09 07:49:30;;;;;;;1.58;1.25;;;;;;;21.27;57.60;95930.69;4992012;28;20226;-86
2021/08/09 07:51:57;;;;;;;1.95;1.20;;;;;;;21.36;56.99;95938.94;4992636;28;20208;-86
2021/08/09 07:54:25;;;;;;;2.45;1.65;;;;;;;21.39;56.33;95938.50;4990601;28;20204;-85
2021/08/09 07:56:55;;;;;;;4.38;1.63;;;;;;;21.50;57.67;95939.47;4992373;28;20223;-85
2021/08/09 07:59:23;;;;;;;1.48;1.33;;;;;;;21.54;59.59;95930.13;4995732;28;20262;-86
2021/08/09 08:01:50;;;;;;;2.53;1.40;;;;;;;21.62;56.91;95925.25;4993833;28;20571;-86
2021/08/09 08:04:16;;;;;;;1.50;1.40;;;;;;;21.74;56.16;95921.78;4993179;28;20214;-86
2021/08/09 08:06:42;;;;;;;3.38;1.52;;;;;;;21.78;53.47;95925.50;4995736;28;20231;-85
2021/08/09 08:09:09;;;;;;;2.25;1.55;;;;;;;21.86;54.45;95919.88;4995143;28;20584;-85
2021/08/09 08:11:36;;;;;;;3.25;1.50;;;;;;;21.87;53.49;95924.09;4992783;28;20221;-86
2021/08/09 08:14:03;;;;;;;2.92;1.60;;;;;;;21.96;55.19;95920.03;4995293;28;20207;-85
2021/08/09 08:16:31;;;;;;;3.75;1.40;;;;;;;22.08;54.61;95927.84;4998543;28;20227;-86
2021/08/09 08:18:57;;;;;;;2.03;1.40;;;;;;;22.32;55.26;95926.63;4990026;28;20227;-85
2021/08/09 08:21:24;;;;;;;2.15;1.30;;;;;;;22.47;54.38;95918.94;4989743;28;20211;-87
2021/08/09 08:23:51;;;;;;;3.03;1.65;;;;;;;22.55;53.13;95915.88;4990541;28;20871;-86
2021/08/09 08:26:17;;;;;;;5.90;3.13;;;;;;;22.57;53.93;95913.81;4990088;28;20209;-85
2021/08/09 08:28:44;;;;;;;9.73;3.80;;;;;;;22.75;53.92;95913.50;4989366;28;20319;-85
2021/08/09 08:31:10;;;;;;;5.43;2.83;;;;;;;22.84;54.76;95918.38;4991204;28;20203;-86
2021/08/09 08:33:38;;;;;;;2.60;1.70;;;;;;;22.97;52.84;95916.16;4990553;28;20199;-87
2021/08/09 08:36:05;;;;;;;2.28;1.70;;;;;;;22.95;53.07;95915.63;4990219;28;20223;-85
2021/08/09 08:38:31;;;;;;;2.83;1.45;;;;;;;23.04;52.51;95915.97;4990421;28;20623;-85
2021/08/09 08:40:59;;;;;;;2.33;1.58;;;;;;;23.14;52.28;95918.69;4990168;28;20709;-85
2021/08/09 08:43:30;;;;;;;5.72;1.80;;;;;;;23.08;51.74;95920.50;4989276;28;20305;-85
2021/08/09 08:46:01;;;;;;;3.78;1.70;;;;;;;23.04;52.43;95921.22;4990350;28;20203;-85
2021/08/09 08:48:30;;;;;;;2.70;1.83;;;;;;;22.82;51.13;95918.63;4989721;28;20223;-85
2021/08/09 08:51:00;;;;;;;2.10;1.58;;;;;;;22.83;53.35;95922.84;4989827;28;20222;-86
2021/08/09 08:53:31;;;;;;;3.35;1.80;;;;;;;22.89;52.69;95932.38;4990242;28;20613;-87
2021/08/09 08:55:58;;;;;;;2.75;1.63;;;;;;;22.86;52.54;95924.97;4989078;28;20233;-86
2021/08/09 08:58:25;;;;;;;3.45;1.85;;;;;;;22.99;53.64;95929.06;4989439;28;20220;-85
2021/08/09 09:00:52;;;;;;;3.45;2.03;;;;;;;23.24;53.15;95916.19;4989149;28;20211;-85
2021/08/09 09:03:21;;;;;;;2.78;1.80;;;;;;;23.43;53.32;95932.41;4989326;28;20738;-85
2021/08/09 09:06:10;;;;;;;2.42;1.50;;;;;;;23.58;51.59;95932.56;4989490;28;20239;-85
2021/08/09 09:08:41;;;;;;;3.60;1.45;;;;;;;23.72;52.40;95932.94;4981655;28;20224;-86
2021/08/09 09:11:11;;;;;;;3.20;1.88;;;;;;;23.81;52.30;95938.53;4989708;28;20207;-88
2021/08/09 09:13:38;;;;;;;6.50;1.63;;;;;;;23.79;50.70;95932.75;4989615;28;20207;-88
2021/08/09 09:16:07;;;;;;;4.80;1.70;;;;;;;23.78;50.44;95929.31;4990564;28;20234;-88
2021/08/09 09:18:48;;;;;;;5.05;1.65;;;;;;;23.60;50.98;95930.50;4989497;28;20224;-88
2021/08/09 09:21:26;;;;;;;2.85;1.55;;;;;;;23.81;50.96;95933.28;4990124;28;20213;-88
2021/08/09 09:23:58;;;;;;;2.15;1.60;;;;;;;23.74;48.22;95933.50;4990243;28;20204;-89
2021/08/09 09:26:26;;;;;;;1.90;1.60;;;;;;;23.62;50.21;95933.66;4988978;28;20313;-88
2021/08/09 09:28:54;;;;;;;3.35;1.60;;;;;;;23.65;50.25;95938.44;4989922;28;20776;-88
2021/08/09 09:31:30;;;;;;;3.67;1.63;;;;;;;23.72;50.23;95941.63;4993799;28;20677;-89
2021/08/09 09:34:02;;;;;;;2.10;1.40;;;;;;;23.63;51.14;95937.88;4978121;28;20227;-89
2021/08/09 09:36:31;;;;;;;2.38;1.65;;;;;;;23.60;49.56;95938.38;4994587;28;20326;-89
2021/08/09 09:38:58;;;;;;;2.08;1.48;;;;;;;23.87;50.62;95927.00;4994517;28;20227;-89
2021/08/09 09:41:27;;;;;;;4.47;1.77;;;;;;;23.85;49.82;95923.84;4995907;28;20634;-88
2021/08/09 09:43:54;;;;;;;4.32;1.40;;;;;;;24.03;49.63;95926.88;4995173;28;20204;-88
2021/08/09 09:46:23;;;;;;;2.03;1.60;;;;;;;24.26;49.69;95928.38;4994033;28;20602;-88
2021/08/09 09:48:49;;;;;;;2.47;1.58;;;;;;;24.06;48.92;95930.81;4993206;28;20227;-88
2021/08/09 09:51:18;;;;;;;2.15;1.60;;;;;;;23.76;49.05;95942.72;4998516;28;20210;-87
2021/08/09 09:53:47;;;;;;;2.80;1.40;;;;;;;23.75;48.13;95938.50;4994933;28;20286;-87
2021/08/09 09:56:16;;;;;;;4.88;1.50;;;;;;;23.36;49.87;95929.97;4995660;28;20314;-88
2021/08/09 09:58:43;;;;;;;2.75;1.58;;;;;;;23.22;49.25;95934.03;4994929;28;20230;-87
2021/08/09 10:01:11;;;;;;;2.70;1.50;;;;;;;23.38;50.44;95924.47;4978212;28;20196;-88
2021/08/09 10:03:41;;;;;;;4.95;1.95;;;;;;;23.72;50.11;95932.94;4994501;28;20207;-86
2021/08/09 10:06:15;;;;;;;2.70;1.50;;;;;;;24.07;49.58;95927.16;4995411;28;20870;-88
2021/08/09 10:08:51;;;;;;;3.38;1.48;;;;;;;24.25;48.23;95929.41;4995667;28;20228;-86
2021/08/09 10:11:22;;;;;;;2.13;1.50;;;;;;;24.47;47.60;95925.84;4997646;28;20275;-86
2021/08/09 10:13:48;;;;;;;2.83;1.50;;;;;;;24.68;45.99;95923.06;5023920;28;20203;-88
2021/08/09 10:16:15;;;;;;;1.95;1.50;;;;;;;24.92;46.89;95933.16;5029284;28;20230;-88
2021/08/09 10:18:47;;;;;;;2.03;1.70;;;;;;;25.12;46.10;95923.53;5014793;28;20225;-87
2021/08/09 10:21:14;;;;;;;1.70;1.33;;;;;;;25.08;45.91;95917.19;5014675;28;20210;-89
2021/08/09 10:23:43;;;;;;;1.92;1.55;;;;;;;25.19;46.58;95917.22;5034250;28;20198;-88
2021/08/09 10:26:12;;;;;;;1.75;1.45;;;;;;;25.08;46.17;95919.03;5021984;28;20203;-89
2021/08/09 10:29:03;;;;;;;3.70;1.35;;;;;;;24.55;46.73;95910.38;5013958;28;20233;-88
2021/08/09 10:31:31;;;;;;;1.67;1.40;;;;;;;24.62;47.56;95916.22;5014576;28;20206;-86
2021/08/09 10:33:59;;;;;;;1.30;1.20;;;;;;;24.81;48.16;95915.75;5014959;28;20807;-87
2021/08/09 10:36:26;;;;;;;3.25;1.40;;;;;;;24.97;47.39;95920.84;5015360;28;20238;-87
2021/08/09 10:38:55;;;;;;;2.78;1.67;;;;;;;25.11;45.60;95914.03;5015297;28;20223;-86
2021/08/09 10:41:34;;;;;;;1.85;1.60;;;;;;;25.23;45.67;95913.00;5014901;28;20203;-86
2021/08/09 10:44:20;;;;;;;2.95;1.52;;;;;;;25.23;46.54;95899.81;5014093;28;20318;-85
2021/08/09 10:46:50;;;;;;;2.42;1.40;;;;;;;25.32;47.30;95899.03;5014515;28;20249;-86
2021/08/09 10:49:57;;;;;;;3.10;1.85;;;;;;;25.44;46.60;95899.56;5014456;28;20253;-87
2021/08/09 10:52:45;;;;;;;2.75;1.50;;;;;;;25.44;47.22;95902.22;5012058;28;20242;-87
2021/08/09 10:55:46;;;;;;;2.28;1.30;;;;;;;25.53;46.31;95899.88;5010273;28;20341;-86
2021/08/09 10:58:51;;;;;;;3.17;1.30;;;;;;;25.33;45.25;95900.63;4996338;28;20270;-88
2021/08/09 11:01:22;;;;;;;2.65;1.58;;;;;;;24.85;45.53;95909.69;5013828;28;20206;-87
2021/08/09 11:04:14;;;;;;;2.00;1.35;;;;;;;24.43;45.61;95897.44;5013819;28;20673;-87
2021/08/09 11:06:44;;;;;;;2.65;1.55;;;;;;;24.15;45.72;95899.59;5014869;28;20338;-89
2021/08/09 11:09:41;;;;;;;2.13;1.58;;;;;;;23.94;46.33;95896.81;5014687;28;20207;-87
2021/08/09 11:12:11;;;;;;;3.15;1.90;;;;;;;24.03;48.54;95912.94;5005514;28;20305;-87
2021/08/09 11:15:26;;;;;;;1.50;1.30;;;;;;;24.20;46.58;95899.63;4994000;28;20231;-87
2021/08/09 11:17:59;;;;;;;1.40;1.30;;;;;;;24.55;45.75;95897.22;4992085;28;20219;-87
2021/08/09 11:20:29;;;;;;;3.83;1.50;;;;;;;24.65;44.99;95901.72;4993626;28;20207;-88
2021/08/09 11:23:07;;;;;;;3.60;1.58;;;;;;;24.57;44.56;95900.38;4994723;28;20227;-86
2021/08/09 11:25:37;;;;;;;3.80;1.63;;;;;;;24.24;44.92;95892.84;4994343;28;20274;-88
2021/08/09 11:28:09;;;;;;;1.98;1.77;;;;;;;24.22;46.26;95894.91;4995044;28;20227;-88
2021/08/09 11:30:47;;;;;;;1.58;1.40;;;;;;;24.00;46.73;95898.44;4993974;28;20230;-86
2021/08/09 11:33:38;;;;;;;2.53;1.55;;;;;;;24.20;45.42;95897.00;4991487;28;20203;-87
2021/08/09 11:36:06;;;;;;;1.50;1.30;;;;;;;24.44;45.50;95898.97;4989812;28;20203;-87
2021/08/09 11:38:47;;;;;;;2.53;1.38;;;;;;;24.69;44.79;95892.25;4993239;28;20647;-88
2021/08/09 11:41:16;;;;;;;2.67;1.33;;;;;;;24.83;43.05;95897.81;4991437;28;20203;-87
2021/08/09 11:43:44;;;;;;;2.45;1.38;;;;;;;25.01;42.89;95892.16;4992027;28;20612;-87
2021/08/09 11:46:13;;;;;;;1.40;1.30;;;;;;;25.19;43.07;95888.22;4992974;28;20196;-88